WZZ542 EHRD-EKCH
Flight info
| Callsign | WZZ542 |
|---|---|
| Flight time | 1h 7m |
| Altitude | 37000 |
| Route | ANDIK N873 JUIST DCT DOSUR P729 TUDLO |
| Aircraft | A20N/M-SDE2E3FGHIRWXY/LB1 |
Departure
| Time | 2026-05-06 18:35 |
|---|---|
| Airport | Rotterdam The Hague Airport (EHRD) |
Arrival
| Time | 2026-05-06 19:43 |
|---|---|
| Airport | Copenhagen Kastrup Airport (EKCH) |
| Time | Latitude | Longitude | Altitude | Speed | Heading |
|---|---|---|---|---|---|
| 2026-05-06 18:04 | 51.95114 | 4.43481 | -4 ft | 0 kts | 325° |
| 2026-05-06 18:21 | 51.95117 | 4.43478 | -4 ft | 1 kts | 325° |
| 2026-05-06 18:21 | 51.95129 | 4.43468 | -4 ft | 2 kts | 342° |
| 2026-05-06 18:21 | 51.95149 | 4.43473 | -4 ft | 4 kts | 25° |
| 2026-05-06 18:22 | 51.95192 | 4.43482 | -6 ft | 8 kts | 344° |
| 2026-05-06 18:22 | 51.95232 | 4.43442 | -4 ft | 5 kts | 304° |
| 2026-05-06 18:22 | 51.95231 | 4.43379 | -4 ft | 6 kts | 244° |
| 2026-05-06 18:22 | 51.95206 | 4.43313 | -4 ft | 7 kts | 236° |
| 2026-05-06 18:23 | 51.95175 | 4.43236 | -3 ft | 8 kts | 236° |
| 2026-05-06 18:23 | 51.95141 | 4.43142 | -4 ft | 10 kts | 243° |
| 2026-05-06 18:23 | 51.95117 | 4.43055 | -6 ft | 4 kts | 249° |
| 2026-05-06 18:23 | 51.95116 | 4.43049 | -6 ft | 0 kts | 251° |
| 2026-05-06 18:34 | 51.95112 | 4.43023 | -7 ft | 8 kts | 262° |
| 2026-05-06 18:34 | 51.95134 | 4.42926 | -7 ft | 10 kts | 314° |
| 2026-05-06 18:34 | 51.95193 | 4.42865 | -7 ft | 10 kts | 355° |
| 2026-05-06 18:34 | 51.95248 | 4.42923 | -6 ft | 3 kts | 53° |
| 2026-05-06 18:35 | 51.95327 | 4.43110 | -4 ft | 55 kts | 54° |
| 2026-05-06 18:35 | 51.95668 | 4.43958 | -6 ft | 123 kts | 56° |
| 2026-05-06 18:35 | 51.96183 | 4.45413 | 101 ft | 166 kts | 59° |
| 2026-05-06 18:35 | 51.96767 | 4.46995 | 822 ft | 164 kts | 60° |
| 2026-05-06 18:36 | 51.97301 | 4.48537 | 1665 ft | 160 kts | 59° |
| 2026-05-06 18:36 | 51.97848 | 4.50132 | 2277 ft | 170 kts | 59° |
| 2026-05-06 18:36 | 51.98449 | 4.51885 | 2772 ft | 188 kts | 59° |
| 2026-05-06 18:36 | 51.99130 | 4.53870 | 2998 ft | 221 kts | 59° |
| 2026-05-06 18:37 | 51.99985 | 4.56168 | 3283 ft | 250 kts | 50° |
| 2026-05-06 18:37 | 52.01271 | 4.58028 | 4177 ft | 253 kts | 29° |
| 2026-05-06 18:37 | 52.02847 | 4.59273 | 5081 ft | 257 kts | 24° |
| 2026-05-06 18:37 | 52.04434 | 4.60573 | 5910 ft | 263 kts | 31° |
| 2026-05-06 18:38 | 52.05905 | 4.62388 | 6743 ft | 269 kts | 43° |
| 2026-05-06 18:38 | 52.07219 | 4.64519 | 7591 ft | 273 kts | 45° |
| 2026-05-06 18:38 | 52.08532 | 4.66751 | 8442 ft | 277 kts | 46° |
| 2026-05-06 18:38 | 52.09858 | 4.69015 | 9260 ft | 281 kts | 46° |
| 2026-05-06 18:39 | 52.11223 | 4.71337 | 10056 ft | 285 kts | 46° |
| 2026-05-06 18:39 | 52.12594 | 4.73662 | 10657 ft | 296 kts | 45° |
| 2026-05-06 18:39 | 52.14061 | 4.76144 | 11161 ft | 310 kts | 45° |
| 2026-05-06 18:40 | 52.17080 | 4.81254 | 12526 ft | 318 kts | 45° |
| 2026-05-06 18:40 | 52.18626 | 4.83872 | 12873 ft | 319 kts | 45° |
| 2026-05-06 18:40 | 52.20156 | 4.86467 | 12937 ft | 319 kts | 45° |
| 2026-05-06 18:40 | 52.21687 | 4.89072 | 12940 ft | 319 kts | 45° |
| 2026-05-06 18:41 | 52.23232 | 4.91700 | 12944 ft | 319 kts | 45° |
| 2026-05-06 18:41 | 52.24762 | 4.94306 | 12945 ft | 319 kts | 45° |
| 2026-05-06 18:41 | 52.26284 | 4.96905 | 12946 ft | 319 kts | 45° |
| 2026-05-06 18:41 | 52.27808 | 4.99508 | 12993 ft | 323 kts | 45° |
| 2026-05-06 18:42 | 52.29387 | 5.02206 | 13510 ft | 329 kts | 45° |
| 2026-05-06 18:42 | 52.30957 | 5.04889 | 14354 ft | 328 kts | 45° |
| 2026-05-06 18:42 | 52.32583 | 5.07491 | 15072 ft | 330 kts | 37° |
| 2026-05-06 18:42 | 52.34536 | 5.09492 | 15705 ft | 334 kts | 23° |
| 2026-05-06 18:43 | 52.36735 | 5.10745 | 16331 ft | 338 kts | 14° |
| 2026-05-06 18:43 | 52.39012 | 5.11737 | 16947 ft | 342 kts | 13° |
| 2026-05-06 18:43 | 52.41306 | 5.12702 | 17544 ft | 347 kts | 13° |
| 2026-05-06 18:43 | 52.43642 | 5.13694 | 18139 ft | 351 kts | 13° |
| 2026-05-06 18:44 | 52.46011 | 5.14714 | 18760 ft | 355 kts | 12° |
| 2026-05-06 18:44 | 52.48390 | 5.15749 | 19373 ft | 358 kts | 13° |
| 2026-05-06 18:44 | 52.50812 | 5.16805 | 19995 ft | 361 kts | 12° |
| 2026-05-06 18:44 | 52.53218 | 5.17859 | 20564 ft | 365 kts | 13° |
| 2026-05-06 18:45 | 52.55674 | 5.18941 | 21126 ft | 369 kts | 12° |
| 2026-05-06 18:45 | 52.58193 | 5.20052 | 21703 ft | 373 kts | 12° |
| 2026-05-06 18:45 | 52.60695 | 5.21157 | 22264 ft | 377 kts | 12° |
| 2026-05-06 18:45 | 52.63225 | 5.22274 | 22827 ft | 380 kts | 12° |
| 2026-05-06 18:46 | 52.65776 | 5.23405 | 23385 ft | 384 kts | 12° |
| 2026-05-06 18:46 | 52.68377 | 5.24560 | 23933 ft | 387 kts | 12° |
| 2026-05-06 18:46 | 52.70951 | 5.25718 | 24445 ft | 391 kts | 14° |
| 2026-05-06 18:46 | 52.73470 | 5.27557 | 24863 ft | 400 kts | 30° |
| 2026-05-06 18:47 | 52.75640 | 5.30426 | 24959 ft | 404 kts | 45° |
| 2026-05-06 18:47 | 52.77428 | 5.34014 | 24969 ft | 405 kts | 51° |
| 2026-05-06 18:47 | 52.79118 | 5.37729 | 24970 ft | 405 kts | 51° |
| 2026-05-06 18:47 | 52.80812 | 5.41427 | 24969 ft | 405 kts | 51° |
| 2026-05-06 18:48 | 52.82505 | 5.45080 | 24967 ft | 405 kts | 51° |
| 2026-05-06 18:48 | 52.84220 | 5.48762 | 25049 ft | 409 kts | 51° |
| 2026-05-06 18:48 | 52.85963 | 5.52488 | 25528 ft | 412 kts | 51° |
| 2026-05-06 18:48 | 52.87713 | 5.56229 | 26104 ft | 413 kts | 51° |
| 2026-05-06 18:49 | 52.89478 | 5.60003 | 26576 ft | 417 kts | 51° |
| 2026-05-06 18:49 | 52.91257 | 5.63811 | 27026 ft | 420 kts | 51° |
| 2026-05-06 18:49 | 52.93038 | 5.67629 | 27450 ft | 424 kts | 51° |
| 2026-05-06 18:49 | 52.94849 | 5.71517 | 27857 ft | 427 kts | 51° |
| 2026-05-06 18:50 | 52.96672 | 5.75436 | 28261 ft | 431 kts | 51° |
| 2026-05-06 18:50 | 52.98484 | 5.79340 | 28651 ft | 433 kts | 51° |
| 2026-05-06 18:50 | 53.00344 | 5.83351 | 29017 ft | 437 kts | 51° |
| 2026-05-06 18:50 | 53.02172 | 5.87300 | 29357 ft | 440 kts | 52° |
| 2026-05-06 18:51 | 53.04037 | 5.91336 | 29695 ft | 443 kts | 51° |
| 2026-05-06 18:51 | 53.05908 | 5.95392 | 30018 ft | 445 kts | 51° |
| 2026-05-06 18:51 | 53.07789 | 5.99478 | 30330 ft | 448 kts | 51° |
| 2026-05-06 18:51 | 53.09700 | 6.03636 | 30657 ft | 450 kts | 52° |
| 2026-05-06 18:52 | 53.11590 | 6.07750 | 30979 ft | 452 kts | 51° |
| 2026-05-06 18:52 | 53.13483 | 6.11877 | 31255 ft | 454 kts | 52° |
| 2026-05-06 18:52 | 53.15403 | 6.16072 | 31516 ft | 456 kts | 52° |
| 2026-05-06 18:52 | 53.17326 | 6.20277 | 31812 ft | 457 kts | 52° |
| 2026-05-06 18:53 | 53.19233 | 6.24457 | 32099 ft | 458 kts | 52° |
| 2026-05-06 18:53 | 53.21160 | 6.28689 | 32486 ft | 457 kts | 51° |
| 2026-05-06 18:53 | 53.23064 | 6.32882 | 32857 ft | 455 kts | 51° |
| 2026-05-06 18:53 | 53.24955 | 6.37050 | 33177 ft | 455 kts | 51° |
| 2026-05-06 18:54 | 53.26864 | 6.41263 | 33509 ft | 454 kts | 51° |
| 2026-05-06 18:54 | 53.28763 | 6.45466 | 33862 ft | 453 kts | 51° |
| 2026-05-06 18:54 | 53.30651 | 6.49646 | 34175 ft | 452 kts | 51° |
| 2026-05-06 18:54 | 53.32529 | 6.53795 | 34463 ft | 451 kts | 50° |
| 2026-05-06 18:55 | 53.34526 | 6.57851 | 34751 ft | 450 kts | 46° |
| 2026-05-06 18:55 | 53.36639 | 6.61642 | 35003 ft | 448 kts | 43° |
| 2026-05-06 18:55 | 53.38893 | 6.65247 | 35212 ft | 447 kts | 41° |
| 2026-05-06 18:55 | 53.41184 | 6.68749 | 35397 ft | 447 kts | 40° |
| 2026-05-06 18:56 | 53.43481 | 6.72240 | 35543 ft | 448 kts | 40° |
| 2026-05-06 18:56 | 53.45753 | 6.75712 | 35677 ft | 449 kts | 41° |
| 2026-05-06 18:56 | 53.48047 | 6.79243 | 35814 ft | 449 kts | 41° |
| 2026-05-06 18:56 | 53.50344 | 6.82792 | 35948 ft | 450 kts | 41° |
| 2026-05-06 18:57 | 53.52640 | 6.86349 | 36084 ft | 450 kts | 41° |
| 2026-05-06 18:57 | 53.54948 | 6.89930 | 36196 ft | 450 kts | 41° |
| 2026-05-06 18:57 | 53.57191 | 6.93499 | 36319 ft | 451 kts | 43° |
| 2026-05-06 18:57 | 53.59416 | 6.97194 | 36488 ft | 451 kts | 43° |
| 2026-05-06 18:58 | 53.61630 | 7.00917 | 36633 ft | 452 kts | 43° |
| 2026-05-06 18:58 | 53.63851 | 7.04662 | 36762 ft | 453 kts | 43° |
| 2026-05-06 18:58 | 53.66070 | 7.08409 | 36911 ft | 454 kts | 43° |
| 2026-05-06 18:59 | 53.70521 | 7.15933 | 36974 ft | 455 kts | 43° |
| 2026-05-06 18:59 | 53.74972 | 7.23474 | 36973 ft | 454 kts | 43° |
| 2026-05-06 19:00 | 53.79386 | 7.30971 | 36977 ft | 454 kts | 43° |
| 2026-05-06 19:00 | 53.83828 | 7.38538 | 36980 ft | 454 kts | 43° |
| 2026-05-06 19:01 | 53.88256 | 7.46109 | 36971 ft | 454 kts | 43° |
| 2026-05-06 19:01 | 53.92670 | 7.53678 | 36965 ft | 454 kts | 43° |
| 2026-05-06 19:02 | 53.97099 | 7.61297 | 36971 ft | 453 kts | 43° |
| 2026-05-06 19:02 | 54.01514 | 7.68916 | 36970 ft | 453 kts | 44° |
| 2026-05-06 19:03 | 54.05908 | 7.76523 | 36971 ft | 453 kts | 44° |
| 2026-05-06 19:03 | 54.10287 | 7.84130 | 36972 ft | 453 kts | 44° |
| 2026-05-06 19:04 | 54.14691 | 7.91805 | 36971 ft | 454 kts | 44° |
| 2026-05-06 19:04 | 54.19066 | 7.99452 | 36971 ft | 454 kts | 44° |
| 2026-05-06 19:05 | 54.23469 | 8.07176 | 36969 ft | 454 kts | 44° |
| 2026-05-06 19:05 | 54.27857 | 8.14896 | 36965 ft | 454 kts | 44° |
| 2026-05-06 19:06 | 54.32222 | 8.22600 | 36967 ft | 454 kts | 44° |
| 2026-05-06 19:06 | 54.36617 | 8.30385 | 36971 ft | 454 kts | 44° |
| 2026-05-06 19:07 | 54.40966 | 8.38111 | 36966 ft | 455 kts | 44° |
| 2026-05-06 19:07 | 54.45354 | 8.45934 | 36969 ft | 455 kts | 44° |
| 2026-05-06 19:08 | 54.49701 | 8.53709 | 36964 ft | 455 kts | 44° |
| 2026-05-06 19:08 | 54.54065 | 8.61542 | 36961 ft | 455 kts | 44° |
| 2026-05-06 19:09 | 54.58416 | 8.69374 | 36963 ft | 454 kts | 45° |
| 2026-05-06 19:09 | 54.62767 | 8.77235 | 36960 ft | 454 kts | 45° |
| 2026-05-06 19:10 | 54.67096 | 8.85080 | 36958 ft | 454 kts | 45° |
| 2026-05-06 19:10 | 54.71455 | 8.93008 | 36957 ft | 455 kts | 45° |
| 2026-05-06 19:11 | 54.75776 | 9.00890 | 36953 ft | 455 kts | 45° |
| 2026-05-06 19:11 | 54.80131 | 9.08865 | 36956 ft | 456 kts | 45° |
| 2026-05-06 19:12 | 54.84471 | 9.16841 | 36957 ft | 457 kts | 45° |
| 2026-05-06 19:12 | 54.88729 | 9.24918 | 36949 ft | 456 kts | 47° |
| 2026-05-06 19:12 | 54.90819 | 9.29059 | 36593 ft | 458 kts | 47° |
| 2026-05-06 19:13 | 54.92918 | 9.33233 | 35925 ft | 465 kts | 47° |
| 2026-05-06 19:13 | 54.95050 | 9.37467 | 35420 ft | 467 kts | 47° |
| 2026-05-06 19:13 | 54.97170 | 9.41676 | 34963 ft | 465 kts | 47° |
| 2026-05-06 19:13 | 54.99287 | 9.45879 | 34435 ft | 462 kts | 47° |
| 2026-05-06 19:14 | 55.01395 | 9.50067 | 33770 ft | 462 kts | 47° |
| 2026-05-06 19:14 | 55.03483 | 9.54221 | 33013 ft | 464 kts | 47° |
| 2026-05-06 19:14 | 55.05600 | 9.58444 | 32189 ft | 467 kts | 47° |
| 2026-05-06 19:14 | 55.07731 | 9.62710 | 31370 ft | 470 kts | 48° |
| 2026-05-06 19:15 | 55.09658 | 9.67281 | 30775 ft | 468 kts | 57° |
| 2026-05-06 19:15 | 55.11205 | 9.72221 | 30218 ft | 464 kts | 65° |
| 2026-05-06 19:15 | 55.12361 | 9.77442 | 29622 ft | 461 kts | 71° |
| 2026-05-06 19:15 | 55.13322 | 9.82744 | 29113 ft | 456 kts | 73° |
| 2026-05-06 19:16 | 55.14216 | 9.87915 | 28973 ft | 442 kts | 73° |
| 2026-05-06 19:16 | 55.15983 | 9.98114 | 28976 ft | 440 kts | 73° |
| 2026-05-06 19:17 | 55.17775 | 10.08327 | 28977 ft | 441 kts | 73° |
| 2026-05-06 19:17 | 55.19575 | 10.18567 | 28960 ft | 440 kts | 73° |
| 2026-05-06 19:17 | 55.20470 | 10.23669 | 28523 ft | 440 kts | 73° |
| 2026-05-06 19:18 | 55.21365 | 10.28788 | 27621 ft | 447 kts | 73° |
| 2026-05-06 19:18 | 55.22263 | 10.33941 | 26746 ft | 443 kts | 73° |
| 2026-05-06 19:18 | 55.23152 | 10.39056 | 25795 ft | 440 kts | 73° |
| 2026-05-06 19:18 | 55.24032 | 10.44131 | 24880 ft | 436 kts | 73° |
| 2026-05-06 19:19 | 55.24890 | 10.49098 | 24013 ft | 431 kts | 73° |
| 2026-05-06 19:19 | 55.25752 | 10.54107 | 23119 ft | 428 kts | 73° |
| 2026-05-06 19:19 | 55.26592 | 10.59010 | 22407 ft | 424 kts | 73° |
| 2026-05-06 19:19 | 55.27432 | 10.63913 | 21754 ft | 420 kts | 73° |
| 2026-05-06 19:20 | 55.28273 | 10.68805 | 21153 ft | 418 kts | 74° |
| 2026-05-06 19:20 | 55.29109 | 10.73666 | 20654 ft | 414 kts | 74° |
| 2026-05-06 19:20 | 55.29925 | 10.78421 | 20175 ft | 411 kts | 74° |
| 2026-05-06 19:20 | 55.30745 | 10.83215 | 19686 ft | 407 kts | 74° |
| 2026-05-06 19:21 | 55.31544 | 10.87911 | 19205 ft | 405 kts | 74° |
| 2026-05-06 19:21 | 55.32343 | 10.92615 | 18695 ft | 403 kts | 74° |
| 2026-05-06 19:21 | 55.33136 | 10.97297 | 18196 ft | 401 kts | 74° |
| 2026-05-06 19:21 | 55.33918 | 11.01967 | 17726 ft | 398 kts | 74° |
| 2026-05-06 19:22 | 55.34686 | 11.06583 | 17273 ft | 395 kts | 74° |
| 2026-05-06 19:22 | 55.35454 | 11.11214 | 16847 ft | 391 kts | 74° |
| 2026-05-06 19:22 | 55.36196 | 11.15706 | 16378 ft | 379 kts | 74° |
| 2026-05-06 19:22 | 55.36915 | 11.20055 | 15796 ft | 369 kts | 74° |
| 2026-05-06 19:23 | 55.37619 | 11.24331 | 15531 ft | 357 kts | 73° |
| 2026-05-06 19:23 | 55.38295 | 11.28446 | 15315 ft | 347 kts | 74° |
| 2026-05-06 19:23 | 55.38958 | 11.32491 | 14976 ft | 342 kts | 73° |
| 2026-05-06 19:23 | 55.39609 | 11.36474 | 14600 ft | 340 kts | 74° |
| 2026-05-06 19:24 | 55.40254 | 11.40426 | 14233 ft | 338 kts | 73° |
| 2026-05-06 19:24 | 55.40901 | 11.44404 | 13862 ft | 335 kts | 73° |
| 2026-05-06 19:24 | 55.41533 | 11.48299 | 13490 ft | 333 kts | 73° |
| 2026-05-06 19:24 | 55.42161 | 11.52182 | 13134 ft | 331 kts | 73° |
| 2026-05-06 19:25 | 55.42787 | 11.56060 | 12771 ft | 328 kts | 73° |
| 2026-05-06 19:25 | 55.43401 | 11.59866 | 12416 ft | 326 kts | 72° |
| 2026-05-06 19:25 | 55.44200 | 11.63596 | 12062 ft | 323 kts | 62° |
| 2026-05-06 19:25 | 55.45330 | 11.66957 | 11942 ft | 320 kts | 54° |
| 2026-05-06 19:26 | 55.46594 | 11.70193 | 11943 ft | 321 kts | 53° |
| 2026-05-06 19:26 | 55.47862 | 11.73372 | 11940 ft | 321 kts | 53° |
| 2026-05-06 19:26 | 55.49152 | 11.76635 | 11938 ft | 322 kts | 53° |
| 2026-05-06 19:26 | 55.50413 | 11.79865 | 11838 ft | 323 kts | 54° |
| 2026-05-06 19:27 | 55.51669 | 11.83109 | 11554 ft | 319 kts | 54° |
| 2026-05-06 19:27 | 55.52907 | 11.86319 | 11174 ft | 317 kts | 54° |
| 2026-05-06 19:27 | 55.54134 | 11.89513 | 10807 ft | 315 kts | 54° |
| 2026-05-06 19:27 | 55.55348 | 11.92696 | 10454 ft | 313 kts | 54° |
| 2026-05-06 19:28 | 55.56559 | 11.95874 | 10110 ft | 310 kts | 54° |
| 2026-05-06 19:28 | 55.57756 | 11.99028 | 9726 ft | 308 kts | 54° |
| 2026-05-06 19:28 | 55.58926 | 12.02134 | 9386 ft | 305 kts | 54° |
| 2026-05-06 19:28 | 55.60074 | 12.05253 | 9049 ft | 302 kts | 55° |
| 2026-05-06 19:29 | 55.61216 | 12.08372 | 8694 ft | 300 kts | 55° |
| 2026-05-06 19:29 | 55.62332 | 12.11428 | 8348 ft | 298 kts | 55° |
| 2026-05-06 19:29 | 55.63450 | 12.14492 | 8007 ft | 295 kts | 55° |
| 2026-05-06 19:29 | 55.64555 | 12.17509 | 7664 ft | 292 kts | 55° |
| 2026-05-06 19:30 | 55.65644 | 12.20487 | 7315 ft | 290 kts | 55° |
| 2026-05-06 19:30 | 55.66729 | 12.23453 | 7013 ft | 285 kts | 55° |
| 2026-05-06 19:30 | 55.67788 | 12.26359 | 6843 ft | 276 kts | 55° |
| 2026-05-06 19:30 | 55.68816 | 12.29186 | 6684 ft | 267 kts | 55° |
| 2026-05-06 19:31 | 55.69794 | 12.31875 | 6515 ft | 260 kts | 55° |
| 2026-05-06 19:31 | 55.70761 | 12.34535 | 6257 ft | 256 kts | 55° |
| 2026-05-06 19:31 | 55.72686 | 12.39830 | 5653 ft | 252 kts | 55° |
| 2026-05-06 19:32 | 55.73621 | 12.42408 | 5362 ft | 250 kts | 54° |
| 2026-05-06 19:32 | 55.74551 | 12.44975 | 5064 ft | 248 kts | 55° |
| 2026-05-06 19:32 | 55.75513 | 12.47498 | 4768 ft | 245 kts | 46° |
| 2026-05-06 19:32 | 55.76733 | 12.49554 | 4475 ft | 241 kts | 37° |
| 2026-05-06 19:33 | 55.78029 | 12.51389 | 4186 ft | 238 kts | 35° |
| 2026-05-06 19:33 | 55.79324 | 12.53161 | 3967 ft | 235 kts | 35° |
| 2026-05-06 19:33 | 55.80627 | 12.54926 | 3953 ft | 236 kts | 34° |
| 2026-05-06 19:33 | 55.81945 | 12.56711 | 3950 ft | 237 kts | 34° |
| 2026-05-06 19:34 | 55.83243 | 12.58478 | 3949 ft | 236 kts | 34° |
| 2026-05-06 19:34 | 55.84549 | 12.60261 | 3948 ft | 236 kts | 35° |
| 2026-05-06 19:34 | 55.85850 | 12.62038 | 3947 ft | 236 kts | 35° |
| 2026-05-06 19:34 | 55.87144 | 12.63803 | 3947 ft | 237 kts | 35° |
| 2026-05-06 19:35 | 55.88456 | 12.65592 | 3944 ft | 237 kts | 36° |
| 2026-05-06 19:35 | 55.89759 | 12.67366 | 3945 ft | 237 kts | 36° |
| 2026-05-06 19:35 | 55.91080 | 12.69164 | 3943 ft | 237 kts | 36° |
| 2026-05-06 19:35 | 55.92384 | 12.70944 | 3940 ft | 237 kts | 36° |
| 2026-05-06 19:36 | 55.93618 | 12.72839 | 3933 ft | 239 kts | 50° |
| 2026-05-06 19:36 | 55.94283 | 12.75541 | 3937 ft | 244 kts | 82° |
| 2026-05-06 19:36 | 55.94069 | 12.78528 | 3939 ft | 246 kts | 114° |
| 2026-05-06 19:36 | 55.93105 | 12.81025 | 3953 ft | 247 kts | 131° |
| 2026-05-06 19:37 | 55.91903 | 12.83199 | 3941 ft | 247 kts | 143° |
| 2026-05-06 19:37 | 55.90342 | 12.84461 | 3946 ft | 246 kts | 168° |
| 2026-05-06 19:37 | 55.88672 | 12.84949 | 3950 ft | 246 kts | 174° |
| 2026-05-06 19:37 | 55.86973 | 12.85299 | 3947 ft | 245 kts | 175° |
| 2026-05-06 19:38 | 55.85282 | 12.85625 | 3945 ft | 244 kts | 175° |
| 2026-05-06 19:38 | 55.83593 | 12.85951 | 3946 ft | 244 kts | 175° |
| 2026-05-06 19:38 | 55.81920 | 12.86275 | 3946 ft | 244 kts | 175° |
| 2026-05-06 19:38 | 55.80233 | 12.86602 | 3947 ft | 243 kts | 175° |
| 2026-05-06 19:39 | 55.78546 | 12.86930 | 3945 ft | 243 kts | 175° |
| 2026-05-06 19:39 | 55.76862 | 12.87236 | 3816 ft | 243 kts | 181° |
| 2026-05-06 19:39 | 55.75249 | 12.86580 | 3548 ft | 238 kts | 212° |
| 2026-05-06 19:39 | 55.73952 | 12.84817 | 3199 ft | 239 kts | 226° |
| 2026-05-06 19:40 | 55.72783 | 12.82742 | 2823 ft | 241 kts | 227° |
| 2026-05-06 19:40 | 55.71561 | 12.80685 | 2468 ft | 240 kts | 224° |
| 2026-05-06 19:40 | 55.70335 | 12.78772 | 2079 ft | 236 kts | 223° |
| 2026-05-06 19:40 | 55.69107 | 12.76901 | 1733 ft | 229 kts | 223° |
| 2026-05-06 19:41 | 55.67928 | 12.75092 | 1422 ft | 221 kts | 223° |
| 2026-05-06 19:41 | 55.66816 | 12.73374 | 1131 ft | 207 kts | 223° |
| 2026-05-06 19:41 | 55.65756 | 12.71734 | 857 ft | 195 kts | 223° |
| 2026-05-06 19:41 | 55.64760 | 12.70193 | 605 ft | 186 kts | 223° |
| 2026-05-06 19:42 | 55.63804 | 12.68716 | 376 ft | 179 kts | 223° |
| 2026-05-06 19:42 | 55.62875 | 12.67324 | 367 ft | 168 kts | 220° |
| 2026-05-06 19:42 | 55.62018 | 12.65973 | 43 ft | 159 kts | 224° |
| 2026-05-06 19:42 | 55.61270 | 12.64761 | 15 ft | 130 kts | 227° |
| 2026-05-06 19:43 | 55.60800 | 12.64050 | 15 ft | 28 kts | 220° |
| 2026-05-06 19:43 | 55.60731 | 12.63762 | 15 ft | 21 kts | 287° |
| 2026-05-06 19:43 | 55.60782 | 12.63632 | 15 ft | 8 kts | 323° |
| 2026-05-06 19:43 | 55.60837 | 12.63594 | 15 ft | 8 kts | 4° |
| 2026-05-06 19:44 | 55.60892 | 12.63641 | 16 ft | 8 kts | 35° |
| 2026-05-06 19:44 | 55.60939 | 12.63700 | 17 ft | 8 kts | 36° |
| 2026-05-06 19:44 | 55.60990 | 12.63766 | 16 ft | 10 kts | 37° |
| 2026-05-06 19:44 | 55.61053 | 12.63852 | 16 ft | 11 kts | 39° |
| 2026-05-06 19:45 | 55.61115 | 12.63947 | 16 ft | 11 kts | 41° |
| 2026-05-06 19:45 | 55.61184 | 12.64039 | 15 ft | 12 kts | 33° |
| 2026-05-06 19:45 | 55.61252 | 12.64108 | 16 ft | 11 kts | 25° |
| 2026-05-06 19:45 | 55.61324 | 12.64168 | 15 ft | 12 kts | 25° |
| 2026-05-06 19:46 | 55.61389 | 12.64225 | 16 ft | 9 kts | 28° |
| 2026-05-06 19:46 | 55.61435 | 12.64273 | 16 ft | 8 kts | 33° |
| 2026-05-06 19:46 | 55.61490 | 12.64342 | 15 ft | 10 kts | 38° |
| 2026-05-06 19:46 | 55.61550 | 12.64432 | 15 ft | 11 kts | 39° |
| 2026-05-06 19:47 | 55.61620 | 12.64523 | 15 ft | 12 kts | 33° |
| 2026-05-06 19:47 | 55.61699 | 12.64604 | 15 ft | 13 kts | 27° |
| 2026-05-06 19:47 | 55.61784 | 12.64685 | 15 ft | 14 kts | 33° |
| 2026-05-06 19:47 | 55.61868 | 12.64785 | 15 ft | 14 kts | 34° |
| 2026-05-06 19:48 | 55.61956 | 12.64887 | 15 ft | 15 kts | 34° |
| 2026-05-06 19:48 | 55.62045 | 12.64992 | 15 ft | 15 kts | 33° |
| 2026-05-06 19:48 | 55.62124 | 12.65081 | 15 ft | 12 kts | 33° |
| 2026-05-06 19:48 | 55.62195 | 12.65163 | 16 ft | 10 kts | 33° |
| 2026-05-06 19:49 | 55.62235 | 12.65193 | 17 ft | 0 kts | 15° |
| 2026-05-06 19:49 | 55.62260 | 12.65205 | 17 ft | 6 kts | 21° |
| 2026-05-06 19:49 | 55.62289 | 12.65266 | 18 ft | 6 kts | 65° |
| 2026-05-06 19:49 | 55.62322 | 12.65325 | 18 ft | 7 kts | 20° |
| 2026-05-06 19:50 | 55.62372 | 12.65332 | 18 ft | 7 kts | 0° |
| 2026-05-06 19:50 | 55.62425 | 12.65359 | 18 ft | 8 kts | 45° |
| 2026-05-06 19:50 | 55.62437 | 12.65403 | 18 ft | 0 kts | 81° |
| 2026-05-06 19:50 | 55.62437 | 12.65405 | 18 ft | 0 kts | 81° |
| 2026-05-06 19:51 | 55.62440 | 12.65423 | 18 ft | 2 kts | 71° |
| 2026-05-06 19:51 | 55.62442 | 12.65433 | 18 ft | 0 kts | 71° |
| 2026-05-06 19:51 | 55.62442 | 12.65437 | 18 ft | 1 kts | 71° |
| 2026-05-06 19:52 | 55.62466 | 12.65520 | 18 ft | 9 kts | 47° |
| 2026-05-06 19:52 | 55.62506 | 12.65565 | 18 ft | 5 kts | 28° |
| 2026-05-06 19:52 | 55.62521 | 12.65579 | 18 ft | 0 kts | 26° |